F\v Tenia — FPMH — position and weather

sailwx.info

Track history (hours):
 
Tides and Currents Weather Stations Pressure Air Temp Water Temp Dewpoint Dewpoint Depression Visibility Wind Speed Wind Dir Waves Ship Positions

F\v Tenia

Last reported at 2014-Jul-30 08:34 UTC. Time now 2014-Jul-30 09:05 UTC.
Position N 51°39' W 009°54'.

Length 22 m; draft 4 m.

Type: Fishing. MMSI: 227575000.

Date/timePositionNaut miles runAvg speedWind from/ knotsBaromVisibWave heightAir tempDewpointWater temp
2014-Jul-30 08:34N 51°39' W 009°54'0 0.0
2014-Jul-30 07:33N 51°39' W 009°54'0 0.0
2014-Jul-30 06:30N 51°39' W 009°54'0 0.0
2014-Jul-30 05:34N 51°39' W 009°54'2 2.2
2014-Jul-30 04:34N 51°37' W 009°55'4 4.2
2014-Jul-30 03:31N 51°33' W 009°60'8 8.3
2014-Jul-30 02:34N 51°28' W 010°08'53 1.6
2014-Jul-28 17:25N 50°49' W 011°06'1 0.7
2014-Jul-28 16:15N 50°50' W 011°06'4 0.9
2014-Jul-28 11:15N 50°48' W 011°12'  
2014-Jul-25 14:18N 51°18' W 010°22'16 8.6
2014-Jul-25 12:22N 51°31' W 010°05'8 8.5
2014-Jul-25 11:27N 51°36' W 009°56'3 3.3
2014-Jul-25 10:33N 51°39' W 009°55'0 0.0
2014-Jul-25 09:31N 51°39' W 009°55'0 0.1
2014-Jul-25 08:24N 51°39' W 009°54'0 0.0
2014-Jul-25 07:32N 51°39' W 009°54'0 0.0
2014-Jul-25 06:28N 51°39' W 009°54'0 0.0
2014-Jul-25 05:30N 51°39' W 009°54'5 5.6
2014-Jul-25 04:33N 51°34' W 009°58'9 8.9
2014-Jul-25 03:34N 51°28' W 010°08'10 8.9
2014-Jul-25 02:28N 51°21' W 010°19'45 1.0
2014-Jul-23 05:31N 50°49' W 011°09'2 0.3
2014-Jul-22 23:21N 50°50' W 011°06'3 2.0
2014-Jul-22 22:08N 50°48' W 011°06'59 5.5
2014-Jul-22 11:32N 51°31' W 010°04'9 1.8
2014-Jul-22 06:12N 51°39' W 009°54'0 0.0
2014-Jul-22 05:25N 51°39' W 009°54'0 0.2
2014-Jul-22 04:31N 51°39' W 009°54'4 4.2
2014-Jul-22 03:33N 51°35' W 009°57'5 5.1
2014-Jul-22 02:34N 51°32' W 010°03'7 7.1
2014-Jul-22 01:33N 51°27' W 010°11'  
Track history (hours):
 
Tides and Currents Weather Stations Pressure Air Temp Water Temp Dewpoint Dewpoint Depression Visibility Wind Speed Wind Dir Waves Ship Positions

F\v Tenia

Last reported at 2014-Jul-30 08:34 UTC. Time now 2014-Jul-30 09:05 UTC.
Position N 51°39' W 009°54'.

Length 22 m; draft 4 m.

Type: Fishing. MMSI: 227575000.

Date/timePositionNaut miles runAvg speedWind from/ knotsBaromVisibWave heightAir tempDewpointWater temp
2014-Jul-30 08:34N 51°39' W 009°54'0 0.0
2014-Jul-30 07:33N 51°39' W 009°54'0 0.0
2014-Jul-30 06:30N 51°39' W 009°54'0 0.0
2014-Jul-30 05:34N 51°39' W 009°54'2 2.2
2014-Jul-30 04:34N 51°37' W 009°55'4 4.2
2014-Jul-30 03:31N 51°33' W 009°60'8 8.3
2014-Jul-30 02:34N 51°28' W 010°08'53 1.6
2014-Jul-28 17:25N 50°49' W 011°06'1 0.7
2014-Jul-28 16:15N 50°50' W 011°06'4 0.9
2014-Jul-28 11:15N 50°48' W 011°12'  
2014-Jul-25 14:18N 51°18' W 010°22'16 8.6
2014-Jul-25 12:22N 51°31' W 010°05'8 8.5
2014-Jul-25 11:27N 51°36' W 009°56'3 3.3
2014-Jul-25 10:33N 51°39' W 009°55'0 0.0
2014-Jul-25 09:31N 51°39' W 009°55'0 0.1
2014-Jul-25 08:24N 51°39' W 009°54'0 0.0
2014-Jul-25 07:32N 51°39' W 009°54'0 0.0
2014-Jul-25 06:28N 51°39' W 009°54'0 0.0
2014-Jul-25 05:30N 51°39' W 009°54'5 5.6
2014-Jul-25 04:33N 51°34' W 009°58'9 8.9
2014-Jul-25 03:34N 51°28' W 010°08'10 8.9
2014-Jul-25 02:28N 51°21' W 010°19'45 1.0
2014-Jul-23 05:31N 50°49' W 011°09'2 0.3
2014-Jul-22 23:21N 50°50' W 011°06'3 2.0
2014-Jul-22 22:08N 50°48' W 011°06'59 5.5
2014-Jul-22 11:32N 51°31' W 010°04'9 1.8
2014-Jul-22 06:12N 51°39' W 009°54'0 0.0
2014-Jul-22 05:25N 51°39' W 009°54'0 0.2
2014-Jul-22 04:31N 51°39' W 009°54'4 4.2
2014-Jul-22 03:33N 51°35' W 009°57'5 5.1
2014-Jul-22 02:34N 51°32' W 010°03'7 7.1
2014-Jul-22 01:33N 51°27' W 010°11'  

Dump ship's entire track history